createdAt,value
2019-02-08T00:02:10.710Z,3.04
2019-02-08T00:07:19.599Z,4.41
2019-02-08T00:12:28.497Z,2.95
2019-02-08T00:17:37.386Z,2.97
2019-02-08T00:22:44.806Z,2.39
2019-02-08T00:27:53.964Z,3.31
2019-02-08T00:33:03.132Z,3.40
2019-02-08T00:38:12.011Z,2.29
2019-02-08T00:43:20.412Z,2.34
2019-02-08T00:48:29.288Z,2.43
2019-02-08T00:53:38.131Z,2.73
2019-02-08T00:58:47.012Z,2.70
2019-02-08T01:03:56.042Z,3.36
2019-02-08T01:09:05.771Z,2.18
2019-02-08T01:14:14.622Z,5.39
2019-02-08T01:19:23.599Z,3.97
2019-02-08T01:24:32.441Z,3.75
2019-02-08T01:29:41.338Z,3.82
2019-02-08T01:34:50.211Z,5.52
2019-02-08T01:39:59.168Z,3.70
2019-02-08T01:45:08.016Z,3.08
2019-02-08T01:50:16.882Z,5.55
2019-02-08T01:55:26.062Z,2.81
2019-02-08T02:00:34.997Z,3.52
2019-02-08T02:05:43.852Z,3.86
2019-02-08T02:10:52.808Z,4.69
2019-02-08T02:16:01.667Z,5.10
2019-02-08T02:21:10.566Z,5.42
2019-02-08T02:26:19.387Z,4.99
2019-02-08T02:31:28.274Z,7.51
2019-02-08T02:36:37.092Z,5.16
2019-02-08T02:41:45.964Z,6.29
2019-02-08T02:46:54.875Z,7.64
2019-02-08T02:52:03.818Z,5.71
2019-02-08T02:57:12.699Z,5.53
2019-02-08T03:02:21.596Z,7.07
2019-02-08T03:07:30.511Z,5.72
2019-02-08T03:12:39.442Z,7.15
2019-02-08T03:17:48.388Z,6.54
2019-02-08T03:22:57.323Z,5.33
2019-02-08T03:28:06.229Z,4.65
2019-02-08T03:33:15.182Z,3.62
2019-02-08T03:38:24.034Z,3.22
2019-02-08T03:43:32.896Z,4.26
2019-02-08T03:48:42.104Z,3.90
2019-02-08T03:53:50.977Z,3.01
2019-02-08T03:58:59.843Z,4.38
2019-02-08T04:04:08.702Z,3.15
2019-02-08T04:09:17.586Z,2.79
2019-02-08T04:14:26.444Z,3.46
2019-02-08T04:19:35.315Z,4.03
2019-02-08T04:24:44.271Z,4.81
2019-02-08T04:29:53.144Z,3.85
2019-02-08T04:35:02.011Z,2.35
2019-02-08T04:40:11.075Z,4.60
2019-02-08T04:45:19.947Z,2.66
2019-02-08T04:50:28.789Z,2.27
2019-02-08T04:55:37.943Z,5.52
2019-02-08T05:00:46.770Z,4.50
2019-02-08T05:05:56.247Z,2.92
2019-02-08T05:11:05.134Z,2.73
2019-02-08T05:16:14.038Z,4.37
2019-02-08T05:21:22.896Z,4.21
2019-02-08T05:26:31.746Z,2.85
2019-02-08T05:31:40.601Z,3.51
2019-02-08T05:36:49.607Z,3.05
2019-02-08T05:41:58.455Z,3.42
2019-02-08T05:47:07.334Z,2.63
2019-02-08T05:52:16.219Z,2.58
2019-02-08T05:57:25.121Z,3.84
2019-02-08T06:02:33.956Z,7.99
2019-02-08T06:07:42.818Z,3.48
2019-02-08T06:12:51.694Z,3.11
2019-02-08T06:18:00.551Z,2.84
2019-02-08T06:23:09.424Z,2.75
2019-02-08T06:28:18.278Z,3.94
2019-02-08T06:33:27.165Z,4.61
2019-02-08T06:38:36.023Z,4.61
2019-02-08T06:43:44.874Z,6.18
2019-02-08T06:48:53.738Z,6.37
2019-02-08T06:54:02.572Z,9.16
2019-02-08T06:59:11.450Z,9.99
2019-02-08T07:04:21.496Z,10.69
2019-02-08T07:09:28.798Z,11.04
2019-02-08T07:14:37.667Z,10.73
2019-02-08T07:19:46.492Z,10.63
2019-02-08T07:24:54.013Z,11.64
2019-02-08T07:30:02.898Z,10.09
2019-02-08T07:35:11.787Z,11.08
2019-02-08T07:40:20.623Z,10.30
2019-02-08T07:45:29.528Z,8.67
2019-02-08T07:50:38.412Z,8.68
2019-02-08T07:55:47.301Z,10.01
2019-02-08T08:00:56.147Z,11.66
2019-02-08T08:06:05.018Z,11.77
2019-02-08T08:11:13.893Z,9.77
2019-02-08T08:16:22.846Z,10.96
2019-02-08T08:21:31.803Z,9.57
2019-02-08T08:26:40.638Z,12.03
2019-02-08T08:31:49.710Z,13.11
2019-02-08T08:36:58.642Z,12.43
2019-02-08T08:42:07.567Z,14.55
2019-02-08T08:47:16.466Z,13.38
2019-02-08T08:52:23.984Z,11.79
2019-02-08T08:57:32.918Z,13.73
2019-02-08T09:02:41.853Z,12.10
2019-02-08T09:07:50.891Z,11.10
2019-02-08T09:12:59.766Z,8.73
2019-02-08T09:18:08.656Z,9.53
2019-02-08T09:23:17.599Z,7.76
2019-02-08T09:28:26.491Z,7.47
2019-02-08T09:33:35.366Z,7.12
2019-02-08T09:38:44.244Z,6.47
2019-02-08T09:43:53.114Z,7.55
2019-02-08T09:49:01.960Z,8.07
2019-02-08T09:54:10.842Z,10.26
2019-02-08T09:59:19.722Z,9.73
2019-02-08T10:04:28.656Z,8.35
2019-02-08T10:09:37.561Z,7.97
2019-02-08T10:14:46.473Z,9.38
2019-02-08T10:19:53.915Z,8.52
2019-02-08T10:25:02.799Z,7.81
2019-02-08T10:30:11.702Z,7.54
2019-02-08T10:35:20.604Z,6.67
2019-02-08T10:40:29.474Z,8.22
2019-02-08T10:45:38.811Z,9.56
2019-02-08T10:50:47.704Z,5.61
2019-02-08T10:55:56.598Z,6.37
2019-02-08T11:01:05.439Z,5.99
2019-02-08T11:06:14.393Z,7.84
2019-02-08T11:11:23.262Z,7.44
2019-02-08T11:16:32.207Z,7.94
2019-02-08T11:21:39.877Z,7.83
2019-02-08T11:26:49.761Z,10.93
2019-02-08T11:31:59.477Z,9.61
2019-02-08T11:36:58.312Z,7.01
2019-02-08T11:42:07.614Z,6.34
2019-02-08T11:47:16.558Z,7.71
2019-02-08T11:52:35.763Z,7.32
2019-02-08T11:57:34.634Z,7.05
2019-02-08T12:02:43.484Z,7.49
2019-02-08T12:07:52.371Z,8.65
2019-02-08T12:13:01.227Z,7.40
2019-02-08T12:18:10.578Z,9.69
2019-02-08T12:23:19.554Z,7.71
2019-02-08T12:28:28.496Z,9.94
2019-02-08T12:33:37.863Z,10.88
2019-02-08T12:38:46.991Z,9.45
2019-02-08T12:44:49.773Z,12.48
2019-02-08T12:48:59.872Z,17.53
2019-02-08T12:53:58.661Z,10.44
2019-02-08T12:59:08.120Z,13.16
2019-02-08T13:04:16.975Z,12.33
2019-02-08T13:09:26.088Z,12.32
2019-02-08T13:14:34.919Z,15.64
2019-02-08T13:19:45.560Z,16.16
2019-02-08T13:24:44.649Z,13.92
2019-02-08T13:29:54.668Z,16.35
2019-02-08T13:34:54.551Z,13.05
2019-02-08T13:40:03.480Z,14.70
2019-02-08T13:45:12.372Z,15.55
2019-02-08T13:50:21.762Z,14.18
2019-02-08T13:55:29.716Z,13.46
2019-02-08T14:00:38.608Z,15.21
2019-02-08T14:05:47.758Z,16.34
2019-02-08T14:10:56.795Z,19.30
2019-02-08T14:16:05.947Z,18.70
2019-02-08T14:21:14.612Z,22.49
2019-02-08T14:26:23.522Z,18.64
2019-02-08T14:31:32.431Z,21.46
2019-02-08T14:36:41.375Z,17.81
2019-02-08T14:41:50.287Z,17.17
2019-02-08T14:46:59.223Z,17.94
2019-02-08T14:52:08.076Z,18.35
2019-02-08T14:57:17.096Z,17.11
2019-02-08T15:02:25.376Z,17.32
2019-02-08T15:07:34.255Z,15.97
2019-02-08T15:12:43.113Z,17.37
2019-02-08T15:17:52.102Z,22.03
2019-02-08T15:23:00.931Z,18.61
2019-02-08T15:28:09.806Z,18.80
2019-02-08T15:33:18.754Z,16.65
2019-02-08T15:38:27.666Z,19.71
2019-02-08T15:43:36.547Z,17.72
2019-02-08T15:48:45.397Z,20.21
2019-02-08T15:53:54.266Z,18.51
2019-02-08T15:59:03.142Z,17.90
2019-02-08T16:04:12.379Z,19.74
2019-02-08T16:09:21.215Z,13.60
2019-02-08T16:14:29.973Z,16.74
2019-02-08T16:19:38.841Z,16.43
2019-02-08T16:24:47.731Z,19.08
2019-02-08T16:29:56.626Z,16.67
2019-02-08T16:35:05.464Z,16.09
2019-02-08T16:40:14.344Z,15.96
2019-02-08T16:45:28.492Z,16.11
2019-02-08T16:50:24.935Z,18.99
2019-02-08T16:55:33.821Z,15.73
2019-02-08T17:00:43.266Z,14.71
2019-02-08T17:05:52.522Z,15.06
2019-02-08T17:11:01.357Z,17.51
2019-02-08T17:16:10.243Z,15.31
2019-02-08T17:21:19.086Z,15.34
2019-02-08T17:26:27.950Z,15.64
2019-02-08T17:31:36.800Z,14.27
2019-02-08T17:36:45.670Z,13.20
2019-02-08T17:41:54.628Z,16.38
2019-02-08T17:47:03.520Z,17.88
2019-02-08T17:52:12.393Z,18.64
2019-02-08T17:57:21.227Z,15.22
2019-02-08T18:02:30.078Z,23.17
2019-02-08T18:07:39.031Z,20.76
2019-02-08T18:12:47.851Z,30.09
2019-02-08T18:17:57.264Z,23.01
2019-02-08T18:23:06.183Z,18.54
2019-02-08T18:28:16.622Z,17.69
2019-02-08T18:33:23.794Z,13.86
2019-02-08T18:38:32.744Z,11.29
2019-02-08T18:43:43.915Z,8.90
2019-02-08T18:48:42.698Z,9.77
2019-02-08T18:53:51.591Z,21.42
2019-02-08T18:59:00.451Z,12.18
2019-02-08T19:04:09.270Z,10.79
2019-02-08T19:09:18.221Z,12.10
2019-02-08T19:14:27.280Z,11.04
2019-02-08T19:19:36.154Z,30.16
2019-02-08T19:24:45.123Z,45.35
2019-02-08T19:29:53.988Z,37.43
2019-02-08T19:35:02.914Z,16.13
2019-02-08T19:40:12.654Z,22.19
2019-02-08T19:45:45.880Z,9.89
2019-02-08T19:50:23.346Z,9.31
2019-02-08T19:55:32.228Z,12.46
2019-02-08T20:00:44.700Z,10.43
2019-02-08T20:05:44.801Z,11.43
2019-02-08T20:10:43.919Z,12.71
2019-02-08T20:15:53.095Z,10.34
2019-02-08T20:21:02.237Z,10.72
2019-02-08T20:26:11.479Z,8.46
2019-02-08T20:31:20.754Z,8.93
2019-02-08T20:36:28.753Z,10.18
2019-02-08T20:41:38.343Z,10.04
2019-02-08T20:46:53.205Z,7.95
2019-02-08T20:51:52.056Z,8.18
2019-02-08T20:57:00.918Z,11.86
2019-02-08T21:02:09.833Z,10.05
2019-02-08T21:07:18.859Z,10.68
2019-02-08T21:12:27.925Z,6.17
2019-02-08T21:17:36.832Z,4.53
2019-02-08T21:22:45.785Z,4.70
2019-02-08T21:27:55.125Z,6.69
2019-02-08T21:33:04.076Z,7.81
2019-02-08T21:38:12.906Z,9.18
2019-02-08T21:43:21.759Z,7.70
2019-02-08T21:48:30.758Z,9.46
2019-02-08T21:53:39.640Z,10.18
2019-02-08T21:58:47.030Z,32.58
2019-02-08T22:03:56.544Z,29.50
2019-02-08T22:09:05.511Z,34.49
2019-02-08T22:14:16.541Z,12.10
2019-02-08T22:19:15.374Z,6.52
2019-02-08T22:24:24.285Z,5.21
2019-02-08T22:29:33.210Z,6.83
2019-02-08T22:34:42.461Z,9.35
2019-02-08T22:39:51.314Z,13.03
2019-02-08T22:45:08.451Z,12.59
2019-02-08T22:50:08.820Z,13.26
2019-02-08T22:55:17.702Z,13.54
2019-02-08T23:00:26.645Z,14.33
2019-02-08T23:05:35.514Z,8.14
2019-02-08T23:10:44.443Z,11.97
2019-02-08T23:15:53.355Z,12.97
2019-02-08T23:21:02.605Z,13.10
2019-02-08T23:26:11.779Z,15.09
2019-02-08T23:31:20.582Z,14.96
2019-02-08T23:36:30.272Z,12.91
2019-02-08T23:41:38.199Z,15.90
2019-02-08T23:46:47.051Z,15.57
2019-02-08T23:51:55.890Z,13.41
2019-02-08T23:57:04.751Z,13.05
